createdAt,value
2022-10-06T00:00:09.696Z,80.84
2022-10-06T00:02:37.863Z,81.04
2022-10-06T00:05:06.185Z,80.88
2022-10-06T00:07:35.938Z,80.74
2022-10-06T00:10:04.556Z,80.49
2022-10-06T00:12:40.032Z,80.70
2022-10-06T00:15:08.710Z,80.79
2022-10-06T00:17:36.883Z,80.76
2022-10-06T00:20:05.273Z,80.71
2022-10-06T00:22:36.475Z,80.71
2022-10-06T00:25:05.161Z,80.35
2022-10-06T00:27:36.754Z,80.39
2022-10-06T00:30:05.069Z,80.77
2022-10-06T00:32:33.378Z,80.67
2022-10-06T00:35:01.575Z,80.54
2022-10-06T00:37:30.068Z,80.71
2022-10-06T00:39:59.643Z,80.36
2022-10-06T00:42:29.552Z,80.41
2022-10-06T00:44:59.202Z,80.58
2022-10-06T00:47:30.244Z,80.68
2022-10-06T00:49:58.418Z,80.66
2022-10-06T00:52:28.898Z,80.46
2022-10-06T00:54:57.433Z,80.42
2022-10-06T00:57:27.242Z,80.50
2022-10-06T00:59:55.560Z,80.47
2022-10-06T01:02:25.087Z,80.45
2022-10-06T01:04:56.016Z,80.36
2022-10-06T01:07:25.697Z,80.41
2022-10-06T01:09:54.378Z,80.31
2022-10-06T01:12:22.536Z,80.51
2022-10-06T01:14:52.391Z,80.66
2022-10-06T01:17:22.270Z,80.71
2022-10-06T01:19:52.092Z,80.94
2022-10-06T01:22:27.548Z,80.54
2022-10-06T01:24:55.594Z,80.21
2022-10-06T01:27:24.481Z,80.31
2022-10-06T01:29:53.957Z,80.57
2022-10-06T01:32:22.410Z,79.94
2022-10-06T01:34:50.448Z,80.29
2022-10-06T01:37:18.453Z,80.21
2022-10-06T01:39:47.971Z,79.81
2022-10-06T01:42:15.989Z,79.80
2022-10-06T01:44:44.053Z,79.90
2022-10-06T01:47:12.152Z,79.82
2022-10-06T01:49:40.604Z,79.68
2022-10-06T01:52:09.453Z,79.79
2022-10-06T01:54:37.548Z,79.68
2022-10-06T01:57:08.585Z,79.98
2022-10-06T01:59:36.598Z,79.89
2022-10-06T02:02:04.743Z,79.93
2022-10-06T02:04:32.947Z,79.42
2022-10-06T02:07:00.934Z,79.34
2022-10-06T02:09:28.896Z,79.58
2022-10-06T02:11:57.091Z,79.30
2022-10-06T02:14:26.535Z,79.21
2022-10-06T02:16:54.575Z,79.16
2022-10-06T02:19:22.654Z,79.00
2022-10-06T02:21:50.681Z,78.99
2022-10-06T02:24:19.256Z,79.21
2022-10-06T02:26:47.246Z,78.88
2022-10-06T02:29:15.205Z,78.82
2022-10-06T02:31:45.063Z,78.79
2022-10-06T02:34:13.216Z,78.75
2022-10-06T02:36:41.205Z,78.45
2022-10-06T02:39:09.176Z,78.64
2022-10-06T02:41:37.504Z,78.53
2022-10-06T02:44:05.523Z,78.65
2022-10-06T02:46:33.562Z,78.85
2022-10-06T02:49:03.093Z,78.55
2022-10-06T02:51:31.663Z,78.93
2022-10-06T02:53:59.594Z,78.70
2022-10-06T02:56:28.181Z,78.92
2022-10-06T02:58:58.457Z,78.62
2022-10-06T03:01:27.898Z,78.78
2022-10-06T03:03:56.221Z,78.89
2022-10-06T03:06:26.417Z,78.91
2022-10-06T03:08:55.579Z,78.79
2022-10-06T03:11:25.121Z,78.90
2022-10-06T03:13:53.774Z,78.67
2022-10-06T03:16:23.222Z,78.62
2022-10-06T03:18:52.495Z,78.64
2022-10-06T03:21:21.008Z,78.40
2022-10-06T03:23:51.752Z,78.49
2022-10-06T03:26:21.086Z,78.73
2022-10-06T03:28:49.137Z,78.64
2022-10-06T03:31:18.113Z,78.43
2022-10-06T03:33:46.131Z,78.48
2022-10-06T03:36:15.302Z,78.48
2022-10-06T03:38:43.614Z,78.82
2022-10-06T03:41:14.200Z,78.55
2022-10-06T03:43:43.910Z,78.81
2022-10-06T03:46:13.255Z,78.87
2022-10-06T03:48:41.570Z,78.76
2022-10-06T03:51:12.541Z,78.84
2022-10-06T03:53:41.071Z,78.86
2022-10-06T03:56:10.297Z,78.90
2022-10-06T03:58:41.111Z,78.77
2022-10-06T04:01:10.162Z,78.74
2022-10-06T04:03:38.375Z,79.07
2022-10-06T04:06:07.497Z,78.99
2022-10-06T04:08:36.616Z,78.69
2022-10-06T04:11:08.495Z,78.50
2022-10-06T04:13:36.578Z,78.54
2022-10-06T04:16:13.072Z,78.47
2022-10-06T04:18:41.643Z,78.52
2022-10-06T04:21:09.816Z,78.36
2022-10-06T04:23:38.081Z,78.56
2022-10-06T04:26:09.591Z,78.31
2022-10-06T04:28:38.354Z,78.74
2022-10-06T04:31:07.261Z,78.62
2022-10-06T04:33:36.831Z,78.67
2022-10-06T04:36:06.002Z,78.38
2022-10-06T04:38:34.757Z,78.70
2022-10-06T04:41:07.303Z,78.24
2022-10-06T04:43:35.485Z,78.60
2022-10-06T04:46:13.287Z,78.62
2022-10-06T04:48:53.431Z,78.36
2022-10-06T04:51:22.330Z,78.56
2022-10-06T04:53:50.734Z,78.47
2022-10-06T04:56:19.495Z,78.52
2022-10-06T04:58:48.614Z,78.56
2022-10-06T05:01:18.126Z,78.33
2022-10-06T05:03:46.686Z,78.17
2022-10-06T05:06:17.325Z,78.39
2022-10-06T05:08:48.663Z,78.21
2022-10-06T05:11:20.286Z,78.26
2022-10-06T05:13:51.172Z,78.14
2022-10-06T05:16:20.013Z,77.96
2022-10-06T05:18:48.773Z,78.30
2022-10-06T05:21:19.037Z,78.17
2022-10-06T05:23:47.027Z,78.19
2022-10-06T05:26:16.622Z,78.15
2022-10-06T05:28:45.111Z,78.16
2022-10-06T05:31:15.352Z,78.00
2022-10-06T05:33:43.883Z,77.89
2022-10-06T05:36:13.544Z,77.92
2022-10-06T05:38:44.424Z,78.11
2022-10-06T05:41:13.625Z,77.94
2022-10-06T05:43:42.727Z,77.74
2022-10-06T05:46:17.622Z,77.70
2022-10-06T05:48:46.991Z,77.76
2022-10-06T05:51:15.702Z,77.56
2022-10-06T05:53:45.732Z,77.79
2022-10-06T05:56:15.323Z,77.67
2022-10-06T05:58:44.417Z,77.45
2022-10-06T06:01:13.789Z,77.38
2022-10-06T06:03:43.469Z,77.18
2022-10-06T06:06:19.108Z,76.60
2022-10-06T06:08:48.941Z,76.66
2022-10-06T06:11:17.407Z,76.74
2022-10-06T06:13:46.377Z,76.86
2022-10-06T06:16:14.137Z,76.66
2022-10-06T06:18:42.950Z,76.98
2022-10-06T06:21:11.984Z,76.55
2022-10-06T06:23:41.143Z,76.45
2022-10-06T06:26:12.268Z,76.27
2022-10-06T06:28:41.821Z,76.33
2022-10-06T06:31:10.895Z,76.41
2022-10-06T06:33:40.152Z,76.37
2022-10-06T06:36:13.924Z,75.78
2022-10-06T06:38:42.314Z,76.27
2022-10-06T06:41:19.072Z,76.52
2022-10-06T06:43:47.655Z,75.80
2022-10-06T06:46:18.968Z,76.14
2022-10-06T06:48:47.965Z,76.13
2022-10-06T06:51:17.524Z,76.13
2022-10-06T06:53:46.126Z,76.49
2022-10-06T06:56:15.251Z,76.45
2022-10-06T06:58:49.056Z,75.84
2022-10-06T07:01:18.412Z,75.81
2022-10-06T07:12:15.260Z,74.17
2022-10-06T07:14:59.656Z,74.45
2022-10-06T07:24:03.565Z,74.00
2022-10-06T07:26:32.429Z,74.31
2022-10-06T07:29:01.830Z,73.83
2022-10-06T07:31:33.635Z,73.28
2022-10-06T07:34:02.932Z,73.21
2022-10-06T07:36:31.565Z,73.22
2022-10-06T07:38:59.713Z,73.25
2022-10-06T07:41:28.606Z,72.87
2022-10-06T07:43:56.648Z,72.87
2022-10-06T07:46:25.987Z,72.93
2022-10-06T07:48:56.435Z,72.35
2022-10-06T07:57:24.195Z,72.42
2022-10-06T08:00:03.480Z,72.04
2022-10-06T08:05:23.895Z,71.85
2022-10-06T08:14:07.880Z,71.66
2022-10-06T08:16:42.504Z,71.55
2022-10-06T08:25:05.153Z,71.32
2022-10-06T08:33:25.120Z,71.03
2022-10-06T08:47:50.872Z,71.09
2022-10-06T09:02:45.722Z,71.07
2022-10-06T09:05:15.044Z,71.42
2022-10-06T09:07:48.726Z,71.36
2022-10-06T09:10:28.199Z,71.59
2022-10-06T09:12:57.453Z,71.68
2022-10-06T09:15:31.269Z,72.14
2022-10-06T09:18:02.894Z,71.87
2022-10-06T09:20:34.214Z,71.92
2022-10-06T09:23:03.262Z,72.10
2022-10-06T09:25:31.378Z,71.90
2022-10-06T09:28:00.457Z,71.91
2022-10-06T09:30:28.864Z,71.71
2022-10-06T09:33:00.358Z,71.23
2022-10-06T09:35:30.557Z,71.44
2022-10-06T09:38:00.691Z,71.13
2022-10-06T09:40:38.333Z,71.11
2022-10-06T09:43:16.690Z,71.11
2022-10-06T09:45:44.770Z,71.06
2022-10-06T09:48:13.674Z,70.92
2022-10-06T09:50:43.192Z,70.84
2022-10-06T09:53:18.797Z,70.39
2022-10-06T09:55:54.767Z,70.19
2022-10-06T09:58:24.781Z,70.20
2022-10-06T10:00:57.227Z,70.11
2022-10-06T10:03:27.449Z,69.98
2022-10-06T10:05:57.087Z,69.68
2022-10-06T10:08:26.285Z,68.96
2022-10-06T10:11:33.421Z,68.99
2022-10-06T10:14:01.636Z,67.62
2022-10-06T10:16:34.857Z,66.37
2022-10-06T10:19:04.442Z,65.94
2022-10-06T10:21:34.760Z,65.20
2022-10-06T10:24:05.303Z,65.30
2022-10-06T10:26:45.883Z,63.12
2022-10-06T10:29:33.133Z,62.62
2022-10-06T10:32:05.536Z,62.16
2022-10-06T10:34:43.745Z,61.58
2022-10-06T10:37:15.304Z,59.99
2022-10-06T10:39:45.714Z,58.97
2022-10-06T10:42:16.738Z,59.89
2022-10-06T10:44:49.940Z,57.37
2022-10-06T10:47:21.969Z,59.09
2022-10-06T10:49:54.257Z,59.97
2022-10-06T10:52:27.562Z,60.57
2022-10-06T10:55:03.745Z,60.64
2022-10-06T10:57:37.293Z,60.80
2022-10-06T11:00:07.719Z,61.83
2022-10-06T11:02:38.429Z,62.32
2022-10-06T11:05:13.796Z,62.51
2022-10-06T11:07:46.825Z,62.47
2022-10-06T11:10:18.905Z,62.50
2022-10-06T11:12:59.143Z,62.64
2022-10-06T11:15:33.018Z,62.80
2022-10-06T11:18:06.125Z,62.77
2022-10-06T11:20:42.938Z,62.93
2022-10-06T11:23:25.642Z,62.78
2022-10-06T11:25:58.608Z,62.99
2022-10-06T11:28:32.368Z,63.00
2022-10-06T11:31:02.618Z,63.33
2022-10-06T11:33:34.085Z,63.67
2022-10-06T11:36:03.783Z,64.04
2022-10-06T11:38:37.876Z,64.18
2022-10-06T11:41:10.392Z,64.50
2022-10-06T11:43:42.437Z,65.10
2022-10-06T11:46:18.339Z,65.11
2022-10-06T11:48:46.905Z,65.26
2022-10-06T11:51:31.118Z,65.30
2022-10-06T11:54:00.703Z,65.26
2022-10-06T11:56:46.834Z,65.34
2022-10-06T11:59:31.477Z,65.37
2022-10-06T12:02:02.679Z,65.24
2022-10-06T12:04:30.753Z,65.40
2022-10-06T12:07:02.191Z,65.56
2022-10-06T12:09:33.073Z,65.02
2022-10-06T12:12:01.864Z,65.30
2022-10-06T12:17:27.549Z,65.20
2022-10-06T12:19:58.936Z,65.42
2022-10-06T12:22:30.164Z,65.33
2022-10-06T12:25:05.292Z,65.79
2022-10-06T12:27:39.501Z,65.65
2022-10-06T12:30:17.886Z,65.79
2022-10-06T12:32:54.305Z,65.71
2022-10-06T12:35:40.191Z,65.64
2022-10-06T12:38:28.698Z,65.63
2022-10-06T12:40:59.742Z,65.54
2022-10-06T12:43:29.291Z,65.71
2022-10-06T12:45:59.488Z,65.55
2022-10-06T12:48:31.243Z,65.39
2022-10-06T12:51:03.345Z,65.50
2022-10-06T12:53:34.251Z,65.77
2022-10-06T12:56:05.105Z,65.87
2022-10-06T12:58:34.182Z,66.01
2022-10-06T13:01:02.649Z,66.48
2022-10-06T13:03:31.034Z,66.42
2022-10-06T13:06:00.042Z,66.42
2022-10-06T13:08:29.492Z,66.25
2022-10-06T13:11:12.243Z,66.73
2022-10-06T13:13:46.806Z,66.81
2022-10-06T13:16:14.931Z,66.97
2022-10-06T13:18:43.128Z,66.79
2022-10-06T13:21:14.098Z,66.76
2022-10-06T13:23:42.093Z,66.95
2022-10-06T13:26:19.317Z,67.16
2022-10-06T13:28:49.724Z,67.62
2022-10-06T13:31:22.509Z,67.31
2022-10-06T13:33:52.439Z,67.55
2022-10-06T13:36:23.657Z,67.70
2022-10-06T13:38:56.516Z,67.71
2022-10-06T13:41:30.157Z,67.47
2022-10-06T13:44:01.491Z,67.39
2022-10-06T13:46:31.037Z,67.24
2022-10-06T13:49:03.545Z,67.45
2022-10-06T13:51:32.342Z,67.20
2022-10-06T13:54:02.273Z,67.37
2022-10-06T13:56:35.954Z,67.29
2022-10-06T13:59:27.467Z,67.36
2022-10-06T14:01:55.693Z,67.33
2022-10-06T14:04:23.982Z,67.58
2022-10-06T14:06:53.484Z,67.88
2022-10-06T14:09:24.027Z,68.27
2022-10-06T14:11:52.669Z,68.21
2022-10-06T14:14:22.277Z,68.08
2022-10-06T14:16:51.816Z,68.24
2022-10-06T14:19:34.234Z,68.31
2022-10-06T14:22:02.643Z,68.77
2022-10-06T14:24:34.203Z,68.69
2022-10-06T14:27:02.805Z,68.97
2022-10-06T14:29:34.292Z,68.80
2022-10-06T14:32:09.083Z,68.88
2022-10-06T14:34:37.068Z,68.96
2022-10-06T14:37:05.026Z,69.13
2022-10-06T14:39:33.030Z,69.00
2022-10-06T14:42:01.086Z,68.86
2022-10-06T14:44:29.301Z,69.28
2022-10-06T14:46:59.101Z,69.31
2022-10-06T14:49:27.183Z,69.30
2022-10-06T14:51:56.050Z,69.34
2022-10-06T14:54:24.416Z,69.14
2022-10-06T14:56:53.438Z,69.27
2022-10-06T14:59:22.094Z,69.36
2022-10-06T15:01:50.167Z,69.27
2022-10-06T15:04:20.593Z,69.34
2022-10-06T15:07:06.315Z,69.10
2022-10-06T15:09:34.530Z,69.25
2022-10-06T15:12:03.234Z,69.32
2022-10-06T15:14:31.320Z,69.33
2022-10-06T15:17:00.498Z,69.37
2022-10-06T15:19:30.040Z,69.54
2022-10-06T15:21:58.293Z,69.69
2022-10-06T15:24:26.378Z,69.86
2022-10-06T15:27:11.689Z,69.90
2022-10-06T15:29:39.888Z,69.82
2022-10-06T15:32:08.381Z,69.95
2022-10-06T15:34:38.277Z,69.98
2022-10-06T15:37:06.824Z,70.10
2022-10-06T15:39:37.249Z,70.10
2022-10-06T15:42:06.374Z,70.42
2022-10-06T15:44:35.790Z,70.24
2022-10-06T15:47:05.503Z,70.30
2022-10-06T15:49:38.279Z,70.35
2022-10-06T15:52:08.411Z,70.35
2022-10-06T15:54:38.063Z,70.41
2022-10-06T15:57:08.776Z,70.70
2022-10-06T15:59:37.264Z,70.94
2022-10-06T16:02:07.879Z,71.13
2022-10-06T16:04:48.757Z,71.13
2022-10-06T16:07:19.195Z,70.85
2022-10-06T16:09:47.993Z,71.08
2022-10-06T16:12:17.590Z,70.99
2022-10-06T16:14:45.936Z,71.11
2022-10-06T16:17:14.213Z,71.00
2022-10-06T16:19:42.309Z,71.00
2022-10-06T16:22:11.652Z,71.05
2022-10-06T16:24:41.339Z,70.72
2022-10-06T16:27:11.842Z,70.78
2022-10-06T16:29:39.857Z,71.31
2022-10-06T16:32:07.946Z,71.42
2022-10-06T16:34:36.030Z,71.44
2022-10-06T16:37:04.160Z,71.34
2022-10-06T16:39:32.157Z,71.19
2022-10-06T16:42:01.478Z,71.33
2022-10-06T16:44:29.537Z,71.34
2022-10-06T16:46:57.525Z,71.30
2022-10-06T16:49:27.413Z,71.29
2022-10-06T16:51:55.428Z,71.33
2022-10-06T16:54:23.475Z,71.57
2022-10-06T16:56:54.425Z,71.54
2022-10-06T16:59:26.133Z,71.86
2022-10-06T17:01:54.373Z,71.90
2022-10-06T17:04:23.370Z,72.17
2022-10-06T17:06:52.319Z,72.06
2022-10-06T17:09:21.598Z,72.14
2022-10-06T17:11:50.269Z,72.33
2022-10-06T17:14:18.701Z,72.41
2022-10-06T17:16:49.413Z,72.29
2022-10-06T17:19:18.609Z,72.13
2022-10-06T17:21:49.527Z,72.55
2022-10-06T17:24:19.941Z,72.58
2022-10-06T17:26:48.549Z,72.88
2022-10-06T17:29:18.972Z,72.77
2022-10-06T17:31:49.681Z,73.09
2022-10-06T17:34:21.153Z,72.88
2022-10-06T17:36:51.910Z,72.61
2022-10-06T17:39:21.717Z,72.71
2022-10-06T17:41:50.641Z,72.85
2022-10-06T17:44:23.163Z,73.05
2022-10-06T17:46:56.581Z,73.32
2022-10-06T17:49:25.370Z,72.84
2022-10-06T17:51:54.023Z,73.19
2022-10-06T17:54:23.512Z,73.23
2022-10-06T17:56:52.549Z,73.03
2022-10-06T17:59:22.336Z,73.12
2022-10-06T18:01:51.914Z,72.87
2022-10-06T18:04:21.683Z,72.81
2022-10-06T18:06:49.744Z,73.25
2022-10-06T18:09:18.512Z,73.00
2022-10-06T18:11:48.559Z,72.97
2022-10-06T18:14:17.371Z,73.16
2022-10-06T18:16:46.685Z,73.51
2022-10-06T18:19:16.193Z,74.14
2022-10-06T18:21:47.738Z,74.61
2022-10-06T18:24:17.328Z,74.49
2022-10-06T18:26:48.235Z,74.57
2022-10-06T18:29:16.875Z,74.77
2022-10-06T18:31:45.157Z,75.38
2022-10-06T18:37:04.078Z,76.06
2022-10-06T18:39:33.635Z,76.57
2022-10-06T18:42:05.433Z,76.87
2022-10-06T18:44:53.113Z,77.14
2022-10-06T18:47:38.933Z,77.48
2022-10-06T18:50:07.629Z,77.41
2022-10-06T18:52:37.032Z,77.30
2022-10-06T18:55:05.219Z,77.11
2022-10-06T18:57:33.363Z,76.61
2022-10-06T19:00:01.310Z,76.57
2022-10-06T19:02:32.381Z,76.22
2022-10-06T19:05:00.504Z,76.43
2022-10-06T19:07:31.024Z,76.29
2022-10-06T19:10:00.519Z,76.53
2022-10-06T19:12:28.600Z,76.70
2022-10-06T19:14:57.879Z,76.65
2022-10-06T19:17:26.111Z,76.98
2022-10-06T19:19:55.471Z,76.96
2022-10-06T19:22:24.933Z,77.16
2022-10-06T19:24:52.906Z,76.92
2022-10-06T19:27:24.509Z,76.92
2022-10-06T19:29:53.334Z,76.59
2022-10-06T19:32:22.964Z,76.52
2022-10-06T19:34:50.947Z,76.91
2022-10-06T19:37:19.176Z,76.85
2022-10-06T19:39:48.245Z,76.69
2022-10-06T19:42:34.575Z,77.18
2022-10-06T19:45:05.186Z,77.08
2022-10-06T19:47:33.140Z,77.17
2022-10-06T19:50:05.969Z,76.93
2022-10-06T19:52:37.678Z,77.03
2022-10-06T19:55:06.322Z,77.45
2022-10-06T19:57:34.298Z,77.39
2022-10-06T20:00:02.191Z,77.50
2022-10-06T20:02:37.395Z,77.77
2022-10-06T20:05:08.332Z,77.69
2022-10-06T20:07:36.351Z,77.24
2022-10-06T20:10:04.580Z,77.65
2022-10-06T20:12:33.797Z,77.77
2022-10-06T20:15:02.029Z,77.43
2022-10-06T20:17:31.621Z,76.99
2022-10-06T20:20:02.139Z,77.03
2022-10-06T20:22:32.107Z,76.91
2022-10-06T20:25:02.788Z,77.13
2022-10-06T20:27:31.705Z,76.56
2022-10-06T20:29:59.860Z,76.45
2022-10-06T20:32:27.921Z,76.75
2022-10-06T20:34:56.213Z,76.77
2022-10-06T20:37:26.128Z,76.44
2022-10-06T20:40:11.942Z,76.62
2022-10-06T20:42:44.880Z,76.83
2022-10-06T20:45:13.182Z,76.80
2022-10-06T20:47:41.528Z,76.83
2022-10-06T20:50:10.329Z,76.80
2022-10-06T20:52:42.659Z,76.48
2022-10-06T20:55:10.957Z,76.49
2022-10-06T20:57:39.425Z,76.14
2022-10-06T21:00:08.171Z,76.22
2022-10-06T21:02:36.440Z,76.47
2022-10-06T21:05:04.797Z,77.34
2022-10-06T21:07:34.671Z,77.38
2022-10-06T21:10:04.138Z,77.33
2022-10-06T21:18:05.810Z,78.15
2022-10-06T21:20:35.405Z,78.34
2022-10-06T21:23:04.585Z,78.23
2022-10-06T21:25:37.029Z,78.20
2022-10-06T21:28:07.684Z,77.96
2022-10-06T21:30:36.475Z,77.72
2022-10-06T21:33:05.454Z,77.97
2022-10-06T21:35:33.810Z,77.66
2022-10-06T21:38:03.144Z,78.39
2022-10-06T21:40:31.590Z,80.03
2022-10-06T21:43:01.783Z,79.46
2022-10-06T21:45:33.183Z,80.39
2022-10-06T21:48:09.098Z,80.45
2022-10-06T21:50:40.751Z,81.20
2022-10-06T21:53:09.153Z,81.44
2022-10-06T21:55:37.336Z,81.42
2022-10-06T21:58:07.231Z,81.48
2022-10-06T22:00:35.526Z,82.09
2022-10-06T22:03:06.586Z,82.35
2022-10-06T22:05:35.317Z,82.18
2022-10-06T22:08:03.488Z,82.36
2022-10-06T22:10:32.683Z,82.96
2022-10-06T22:13:01.313Z,82.92
2022-10-06T22:15:31.589Z,83.45
2022-10-06T22:17:59.939Z,83.00
2022-10-06T22:20:28.133Z,82.96
2022-10-06T22:22:59.323Z,82.45
2022-10-06T22:25:29.669Z,82.35
2022-10-06T22:27:58.076Z,81.77
2022-10-06T22:30:26.606Z,81.92
2022-10-06T22:32:56.240Z,82.61
2022-10-06T22:35:24.619Z,82.51
2022-10-06T22:37:53.322Z,82.55
2022-10-06T22:40:21.967Z,82.45
2022-10-06T22:42:50.710Z,82.26
2022-10-06T22:45:19.492Z,82.24
2022-10-06T22:47:47.927Z,82.53
2022-10-06T22:50:18.029Z,82.35
2022-10-06T22:52:46.844Z,82.02
2022-10-06T22:55:15.019Z,82.22
2022-10-06T22:57:43.388Z,82.18
2022-10-06T23:00:12.233Z,81.98
2022-10-06T23:02:40.632Z,81.70
2022-10-06T23:05:08.999Z,81.75
2022-10-06T23:07:38.577Z,81.50
2022-10-06T23:10:07.380Z,81.21
2022-10-06T23:12:35.547Z,80.85
2022-10-06T23:15:03.916Z,81.20
2022-10-06T23:17:32.766Z,80.53
2022-10-06T23:20:01.031Z,81.01
2022-10-06T23:22:30.303Z,80.62
2022-10-06T23:25:00.101Z,80.71
2022-10-06T23:27:28.339Z,80.39
2022-10-06T23:29:57.009Z,80.72
2022-10-06T23:32:25.237Z,80.77
2022-10-06T23:34:54.453Z,80.50
2022-10-06T23:37:23.237Z,80.28
2022-10-06T23:39:51.679Z,80.12
2022-10-06T23:42:21.793Z,80.09
2022-10-06T23:44:50.149Z,79.88
2022-10-06T23:47:18.379Z,80.10
2022-10-06T23:49:46.807Z,80.48
2022-10-06T23:52:15.545Z,80.79
2022-10-06T23:54:44.640Z,80.63
2022-10-06T23:57:12.801Z,80.62
2022-10-06T23:59:42.525Z,80.19
